createdAt,value
2022-08-09T00:00:00.466Z,2.83
2022-08-09T00:02:28.651Z,2.90
2022-08-09T00:05:00.749Z,3.00
2022-08-09T00:07:45.263Z,2.60
2022-08-09T00:10:18.010Z,2.83
2022-08-09T00:12:51.556Z,2.53
2022-08-09T00:15:20.482Z,2.50
2022-08-09T00:18:06.203Z,2.80
2022-08-09T00:20:41.557Z,2.80
2022-08-09T00:23:55.684Z,2.70
2022-08-09T00:26:05.165Z,2.70
2022-08-09T00:28:32.164Z,3.17
2022-08-09T00:31:02.392Z,2.93
2022-08-09T00:33:51.968Z,2.80
2022-08-09T00:36:20.520Z,2.90
2022-08-09T00:38:51.203Z,2.87
2022-08-09T00:44:11.611Z,3.00
2022-08-09T00:44:25.713Z,3.17
2022-08-09T00:46:55.878Z,2.83
2022-08-09T00:49:24.576Z,3.40
2022-08-09T00:51:56.444Z,3.23
2022-08-09T00:54:31.586Z,3.30
2022-08-09T00:57:02.342Z,2.90
2022-08-09T00:59:41.422Z,3.30
2022-08-09T01:02:24.600Z,2.80
2022-08-09T01:05:02.559Z,3.10
2022-08-09T01:08:00.057Z,3.13
2022-08-09T01:10:38.793Z,3.50
2022-08-09T01:13:31.104Z,3.43
2022-08-09T01:16:12.795Z,3.00
2022-08-09T01:18:47.482Z,3.60
2022-08-09T01:22:05.161Z,3.23
2022-08-09T01:25:08.100Z,3.50
2022-08-09T01:27:41.624Z,3.63
2022-08-09T01:30:33.760Z,3.13
2022-08-09T01:32:57.618Z,3.80
2022-08-09T01:35:38.947Z,4.10
2022-08-09T01:38:15.548Z,3.47
2022-08-09T01:40:53.155Z,3.60
2022-08-09T01:43:41.992Z,4.03
2022-08-09T01:46:30.056Z,3.27
2022-08-09T01:49:10.650Z,3.87
2022-08-09T01:51:42.908Z,3.70
2022-08-09T01:54:13.699Z,3.90
2022-08-09T01:56:51.673Z,4.20
2022-08-09T01:59:21.460Z,4.10
2022-08-09T02:02:00.248Z,4.07
2022-08-09T02:04:29.505Z,4.57
2022-08-09T02:07:18.286Z,4.50
2022-08-09T02:10:04.486Z,4.03
2022-08-09T02:12:33.353Z,4.53
2022-08-09T02:15:02.260Z,3.77
2022-08-09T02:18:09.978Z,4.10
2022-08-09T02:20:32.751Z,3.83
2022-08-09T02:23:13.321Z,3.70
2022-08-09T02:25:52.457Z,3.70
2022-08-09T02:28:27.075Z,3.80
2022-08-09T02:31:08.846Z,3.77
2022-08-09T02:34:07.330Z,3.43
2022-08-09T02:36:42.081Z,3.50
2022-08-09T02:39:20.008Z,3.80
2022-08-09T02:42:05.588Z,3.97
2022-08-09T02:44:55.403Z,4.20
2022-08-09T02:47:24.541Z,3.80
2022-08-09T02:50:02.014Z,3.70
2022-08-09T02:52:37.355Z,3.83
2022-08-09T02:55:20.237Z,4.00
2022-08-09T02:57:59.970Z,3.50
2022-08-09T03:00:29.432Z,3.73
2022-08-09T03:03:00.569Z,3.80
2022-08-09T03:05:28.519Z,3.97
2022-08-09T03:07:55.845Z,3.80
2022-08-09T03:10:24.120Z,3.67
2022-08-09T03:12:52.286Z,4.00
2022-08-09T03:15:20.825Z,3.40
2022-08-09T03:17:58.641Z,4.03
2022-08-09T03:20:29.433Z,4.07
2022-08-09T03:23:00.282Z,4.30
2022-08-09T03:25:58.455Z,3.83
2022-08-09T03:28:30.429Z,3.60
2022-08-09T03:30:58.277Z,4.53
2022-08-09T03:33:26.732Z,4.70
2022-08-09T03:36:16.294Z,5.00
2022-08-09T03:38:44.921Z,5.37
2022-08-09T03:41:16.576Z,5.20
2022-08-09T03:43:51.722Z,5.23
2022-08-09T03:46:33.412Z,5.27
2022-08-09T03:49:04.307Z,5.20
2022-08-09T03:51:57.325Z,4.97
2022-08-09T03:54:29.138Z,4.80
2022-08-09T03:56:57.792Z,4.43
2022-08-09T03:59:27.462Z,4.10
2022-08-09T04:02:10.446Z,3.97
2022-08-09T04:04:39.027Z,4.60
2022-08-09T04:07:05.676Z,4.00
2022-08-09T04:09:48.057Z,4.20
2022-08-09T04:12:49.731Z,3.90
2022-08-09T04:15:39.216Z,3.60
2022-08-09T04:18:06.725Z,3.90
2022-08-09T04:20:33.287Z,4.40
2022-08-09T04:23:00.526Z,4.07
2022-08-09T04:25:29.510Z,4.00
2022-08-09T04:28:02.649Z,4.47
2022-08-09T04:30:31.570Z,4.40
2022-08-09T04:33:00.023Z,4.10
2022-08-09T04:35:27.705Z,3.73
2022-08-09T04:37:55.871Z,4.10
2022-08-09T04:40:36.354Z,4.00
2022-08-09T04:43:03.904Z,4.10
2022-08-09T04:45:36.083Z,4.60
2022-08-09T04:48:18.662Z,4.13
2022-08-09T04:50:45.638Z,4.10
2022-08-09T04:53:16.767Z,4.27
2022-08-09T04:55:58.952Z,4.63
2022-08-09T04:58:31.910Z,5.20
2022-08-09T05:01:00.497Z,4.80
2022-08-09T05:03:39.898Z,4.50
2022-08-09T05:06:10.653Z,4.73
2022-08-09T05:08:37.810Z,4.97
2022-08-09T05:11:06.971Z,5.97
2022-08-09T05:13:38.486Z,5.60
2022-08-09T05:16:10.137Z,4.80
2022-08-09T05:18:55.488Z,5.07
2022-08-09T05:21:24.631Z,5.67
2022-08-09T05:23:59.708Z,5.33
2022-08-09T05:26:45.352Z,5.77
2022-08-09T05:29:21.221Z,6.00
2022-08-09T05:31:57.272Z,5.20
2022-08-09T05:34:31.443Z,6.07
2022-08-09T05:37:06.128Z,5.00
2022-08-09T05:39:35.771Z,5.37
2022-08-09T05:42:09.652Z,5.30
2022-08-09T05:44:44.755Z,5.20
2022-08-09T05:47:14.263Z,5.67
2022-08-09T05:50:31.136Z,5.93
2022-08-09T05:52:27.526Z,5.50
2022-08-09T05:54:57.210Z,5.30
2022-08-09T05:57:50.957Z,4.63
2022-08-09T06:00:17.009Z,5.73
2022-08-09T06:02:46.515Z,5.60
2022-08-09T06:05:14.321Z,5.60
2022-08-09T06:07:44.721Z,4.40
2022-08-09T06:10:40.453Z,4.97
2022-08-09T06:13:12.055Z,5.03
2022-08-09T06:15:46.954Z,5.03
2022-08-09T06:18:14.131Z,4.40
2022-08-09T06:20:43.138Z,4.23
2022-08-09T06:23:22.081Z,4.30
2022-08-09T06:25:55.379Z,4.73
2022-08-09T06:28:22.149Z,4.33
2022-08-09T06:30:54.491Z,4.53
2022-08-09T06:33:41.162Z,4.67
2022-08-09T06:36:09.564Z,4.70
2022-08-09T06:38:47.325Z,4.63
2022-08-09T06:41:19.134Z,4.97
2022-08-09T06:43:49.580Z,4.40
2022-08-09T06:46:40.147Z,4.60
2022-08-09T06:49:06.637Z,4.20
2022-08-09T06:51:39.825Z,3.70
2022-08-09T06:54:06.681Z,4.23
2022-08-09T06:56:38.496Z,3.77
2022-08-09T07:00:49.991Z,4.27
2022-08-09T07:01:58.033Z,3.97
2022-08-09T07:04:26.895Z,3.80
2022-08-09T07:07:00.412Z,3.63
2022-08-09T07:09:56.535Z,3.70
2022-08-09T07:12:17.980Z,3.07
2022-08-09T07:14:51.402Z,3.60
2022-08-09T07:17:21.719Z,3.57
2022-08-09T07:19:50.755Z,3.20
2022-08-09T07:22:34.782Z,2.70
2022-08-09T07:25:05.570Z,2.97
2022-08-09T07:27:42.649Z,3.17
2022-08-09T07:30:13.249Z,3.20
2022-08-09T07:32:41.215Z,2.70
2022-08-09T07:35:12.523Z,4.20
2022-08-09T07:37:45.681Z,2.77
2022-08-09T07:40:18.507Z,2.63
2022-08-09T07:42:52.421Z,2.20
2022-08-09T07:45:37.488Z,2.70
2022-08-09T07:48:05.717Z,2.43
2022-08-09T07:50:33.035Z,2.70
2022-08-09T07:53:05.118Z,2.87
2022-08-09T07:55:41.425Z,2.70
2022-08-09T07:58:19.288Z,2.70
2022-08-09T08:00:55.523Z,2.90
2022-08-09T08:03:24.285Z,2.33
2022-08-09T08:05:58.315Z,2.20
2022-08-09T08:09:00.718Z,2.10
2022-08-09T08:12:08.815Z,2.10
2022-08-09T08:13:58.286Z,2.27
2022-08-09T08:16:31.326Z,2.03
2022-08-09T08:18:59.889Z,2.00
2022-08-09T08:21:30.251Z,1.70
2022-08-09T08:23:56.664Z,1.70
2022-08-09T08:26:26.507Z,2.10
2022-08-09T08:29:09.529Z,2.40
2022-08-09T08:32:02.498Z,3.80
2022-08-09T08:34:25.313Z,2.23
2022-08-09T08:36:52.503Z,2.00
2022-08-09T08:39:21.961Z,2.33
2022-08-09T08:41:52.325Z,1.90
2022-08-09T08:44:22.937Z,1.70
2022-08-09T08:47:02.250Z,1.90
2022-08-09T08:49:46.905Z,2.30
2022-08-09T08:52:52.584Z,1.80
2022-08-09T08:55:05.657Z,1.77
2022-08-09T08:57:35.368Z,1.90
2022-08-09T09:00:17.312Z,1.80
2022-08-09T09:03:03.019Z,1.87
2022-08-09T09:06:00.348Z,2.00
2022-08-09T09:08:31.067Z,1.93
2022-08-09T09:11:05.534Z,2.07
2022-08-09T09:13:55.904Z,2.10
2022-08-09T09:16:30.659Z,2.10
2022-08-09T09:22:15.742Z,2.20
2022-08-09T09:24:50.566Z,2.33
2022-08-09T09:28:05.449Z,2.27
2022-08-09T09:30:40.168Z,2.30
2022-08-09T09:33:15.990Z,1.87
2022-08-09T09:36:00.624Z,2.30
2022-08-09T09:38:46.276Z,2.50
2022-08-09T09:41:33.272Z,2.23
2022-08-09T09:44:25.443Z,2.20
2022-08-09T09:46:57.158Z,2.57
2022-08-09T09:49:50.066Z,2.40
2022-08-09T09:52:16.664Z,2.30
2022-08-09T09:55:28.568Z,2.40
2022-08-09T09:58:02.376Z,2.30
2022-08-09T10:00:31.920Z,2.30
2022-08-09T10:03:00.297Z,2.00
2022-08-09T10:06:03.721Z,2.20
2022-08-09T10:08:27.090Z,2.30
2022-08-09T10:10:56.561Z,2.80
2022-08-09T10:13:24.738Z,2.10
2022-08-09T10:16:56.563Z,2.50
2022-08-09T10:19:02.676Z,2.37
2022-08-09T10:21:30.826Z,1.90
2022-08-09T10:24:03.944Z,2.10
2022-08-09T10:26:31.357Z,2.17
2022-08-09T10:29:21.366Z,2.08
2022-08-09T10:34:35.873Z,2.27
2022-08-09T10:37:02.599Z,2.38
2022-08-09T10:39:29.886Z,2.28
2022-08-09T10:42:06.931Z,2.50
2022-08-09T10:44:39.961Z,2.75
2022-08-09T10:48:17.365Z,2.38
2022-08-09T10:51:14.984Z,2.43
2022-08-09T10:53:59.625Z,2.50
2022-08-09T10:56:37.456Z,3.07
2022-08-09T10:59:23.148Z,2.60
2022-08-09T11:03:15.687Z,2.40
2022-08-09T11:04:39.846Z,2.20
2022-08-09T11:07:27.107Z,2.40
2022-08-09T11:10:13.653Z,2.45
2022-08-09T11:12:44.960Z,2.30
2022-08-09T11:15:18.962Z,2.33
2022-08-09T11:17:56.791Z,2.40
2022-08-09T11:20:42.241Z,2.57
2022-08-09T11:23:11.025Z,2.50
2022-08-09T11:25:47.624Z,2.50
2022-08-09T11:28:38.839Z,2.40
2022-08-09T11:31:43.203Z,2.28
2022-08-09T11:34:18.640Z,2.63
2022-08-09T11:36:48.126Z,2.30
2022-08-09T11:39:15.383Z,2.30
2022-08-09T11:41:45.201Z,2.28
2022-08-09T11:44:11.822Z,2.10
2022-08-09T11:46:57.700Z,2.50
2022-08-09T11:50:52.440Z,2.25
2022-08-09T11:53:57.924Z,2.50
2022-08-09T11:55:53.723Z,2.50
2022-08-09T11:58:33.077Z,2.28
2022-08-09T12:01:08.802Z,2.33
2022-08-09T12:03:56.743Z,2.60
2022-08-09T12:06:32.394Z,2.30
2022-08-09T12:09:04.162Z,2.53
2022-08-09T12:11:44.495Z,2.20
2022-08-09T12:14:40.987Z,2.50
2022-08-09T12:17:34.697Z,2.38
2022-08-09T12:20:16.757Z,2.35
2022-08-09T12:22:56.925Z,2.10
2022-08-09T12:25:37.051Z,2.25
2022-08-09T12:29:12.462Z,2.10
2022-08-09T12:31:10.784Z,2.28
2022-08-09T12:34:00.747Z,2.05
2022-08-09T12:36:33.711Z,2.17
2022-08-09T12:39:00.844Z,2.00
2022-08-09T12:41:38.162Z,2.15
2022-08-09T12:44:09.746Z,2.78
2022-08-09T12:46:39.516Z,2.30
2022-08-09T12:49:08.656Z,2.03
2022-08-09T12:52:00.364Z,2.22
2022-08-09T12:54:22.548Z,2.40
2022-08-09T12:56:54.458Z,2.30
2022-08-09T12:59:23.472Z,2.20
2022-08-09T13:01:59.086Z,2.25
2022-08-09T13:04:37.272Z,2.00
2022-08-09T13:07:20.045Z,2.10
2022-08-09T13:10:04.761Z,2.20
2022-08-09T13:12:32.336Z,1.88
2022-08-09T13:15:09.802Z,1.92
2022-08-09T13:18:03.451Z,1.80
2022-08-09T13:20:37.577Z,1.80
2022-08-09T13:24:44.433Z,1.67
2022-08-09T13:26:53.236Z,2.15
2022-08-09T13:29:42.065Z,2.03
2022-08-09T13:32:25.308Z,1.73
2022-08-09T13:34:54.485Z,1.60
2022-08-09T13:37:50.986Z,1.70
2022-08-09T13:41:45.745Z,1.80
2022-08-09T13:42:58.982Z,2.00
2022-08-09T13:45:32.343Z,1.65
2022-08-09T13:48:11.877Z,2.15
2022-08-09T13:50:41.972Z,1.50
2022-08-09T13:53:10.213Z,1.67
2022-08-09T13:55:37.446Z,1.60
2022-08-09T13:58:05.082Z,1.58
2022-08-09T14:00:42.699Z,1.63
2022-08-09T14:04:01.388Z,1.70
2022-08-09T14:06:11.893Z,1.60
2022-08-09T14:08:46.445Z,1.52
2022-08-09T14:11:16.216Z,1.50
2022-08-09T14:14:24.264Z,1.55
2022-08-09T14:16:30.113Z,1.40
2022-08-09T14:18:58.193Z,1.60
2022-08-09T14:21:26.915Z,1.48
2022-08-09T14:23:57.437Z,1.50
2022-08-09T14:26:30.483Z,1.60
2022-08-09T14:29:25.735Z,1.60
2022-08-09T14:31:55.182Z,1.52
2022-08-09T14:34:31.892Z,1.65
2022-08-09T14:37:07.513Z,1.65
2022-08-09T14:39:45.717Z,1.60
2022-08-09T14:42:31.966Z,1.67
2022-08-09T14:46:46.400Z,1.88
2022-08-09T14:47:57.937Z,1.60
2022-08-09T14:50:26.290Z,1.55
2022-08-09T14:52:53.477Z,1.45
2022-08-09T14:55:21.349Z,1.60
2022-08-09T14:57:49.341Z,1.60
2022-08-09T15:00:17.589Z,1.50
2022-08-09T15:02:47.607Z,1.40
2022-08-09T15:05:19.609Z,1.35
2022-08-09T15:07:56.420Z,1.20
2022-08-09T15:10:26.364Z,1.40
2022-08-09T15:12:54.035Z,1.40
2022-08-09T15:15:28.792Z,1.60
2022-08-09T15:17:58.694Z,1.48
2022-08-09T15:21:56.706Z,1.30
2022-08-09T15:24:03.723Z,1.45
2022-08-09T15:26:03.351Z,1.30
2022-08-09T15:28:33.370Z,1.20
2022-08-09T15:31:14.570Z,1.52
2022-08-09T15:34:15.511Z,1.50
2022-08-09T15:36:32.628Z,1.20
2022-08-09T15:39:00.216Z,1.30
2022-08-09T15:41:31.217Z,1.30
2022-08-09T15:44:03.734Z,1.40
2022-08-09T15:46:32.818Z,1.33
2022-08-09T15:49:23.054Z,1.50
2022-08-09T15:52:04.863Z,1.50
2022-08-09T15:54:46.148Z,1.35
2022-08-09T15:57:35.067Z,1.23
2022-08-09T16:00:25.714Z,1.30
2022-08-09T16:02:57.597Z,1.40
2022-08-09T16:05:47.684Z,1.30
2022-08-09T16:08:31.246Z,1.30
2022-08-09T16:11:02.468Z,1.42
2022-08-09T16:14:06.016Z,1.40
2022-08-09T16:16:48.227Z,1.40
2022-08-09T16:19:15.314Z,1.50
2022-08-09T16:21:51.776Z,1.48
2022-08-09T16:24:32.831Z,1.45
2022-08-09T16:27:00.960Z,1.27
2022-08-09T16:29:37.431Z,1.33
2022-08-09T16:32:33.488Z,1.33
2022-08-09T16:35:02.367Z,1.20
2022-08-09T16:37:54.786Z,1.33
2022-08-09T16:40:29.996Z,1.48
2022-08-09T16:43:06.818Z,1.48
2022-08-09T16:45:33.269Z,1.55
2022-08-09T16:48:40.919Z,1.40
2022-08-09T16:50:59.314Z,1.20
2022-08-09T16:53:34.097Z,1.40
2022-08-09T16:56:07.659Z,1.60
2022-08-09T16:58:37.547Z,1.50
2022-08-09T17:01:07.826Z,1.55
2022-08-09T17:03:36.256Z,1.60
2022-08-09T17:06:28.261Z,1.52
2022-08-09T17:09:00.034Z,1.30
2022-08-09T17:11:41.074Z,1.33
2022-08-09T17:14:26.404Z,1.58
2022-08-09T17:17:02.253Z,1.50
2022-08-09T17:20:05.231Z,1.60
2022-08-09T17:22:28.667Z,1.38
2022-08-09T17:25:02.675Z,1.42
2022-08-09T17:27:29.406Z,1.50
2022-08-09T17:29:55.985Z,1.42
2022-08-09T17:32:36.660Z,1.48
2022-08-09T17:35:11.686Z,1.30
2022-08-09T17:38:14.574Z,1.50
2022-08-09T17:40:30.208Z,1.40
2022-08-09T17:42:59.694Z,1.60
2022-08-09T17:46:03.356Z,1.35
2022-08-09T17:48:29.493Z,1.70
2022-08-09T17:51:06.606Z,1.50
2022-08-09T17:53:43.063Z,1.88
2022-08-09T17:56:10.783Z,1.50
2022-08-09T17:58:37.391Z,1.50
2022-08-09T18:01:04.018Z,1.60
2022-08-09T18:03:31.899Z,1.63
2022-08-09T18:06:00.990Z,1.63
2022-08-09T18:08:28.309Z,1.45
2022-08-09T18:11:02.172Z,1.40
2022-08-09T18:13:54.470Z,1.55
2022-08-09T18:16:29.312Z,1.60
2022-08-09T18:18:57.459Z,1.70
2022-08-09T18:21:31.740Z,1.63
2022-08-09T18:24:12.854Z,1.65
2022-08-09T18:26:45.858Z,1.80
2022-08-09T18:30:41.260Z,2.00
2022-08-09T18:32:02.979Z,1.67
2022-08-09T18:34:31.478Z,1.63
2022-08-09T18:36:58.440Z,1.60
2022-08-09T18:39:25.757Z,1.75
2022-08-09T18:42:01.047Z,1.60
2022-08-09T18:44:27.769Z,1.88
2022-08-09T18:47:04.213Z,1.65
2022-08-09T18:49:43.809Z,1.77
2022-08-09T18:52:38.930Z,1.60
2022-08-09T18:55:05.766Z,1.67
2022-08-09T18:57:44.719Z,2.10
2022-08-09T19:00:19.877Z,1.90
2022-08-09T19:02:50.900Z,1.90
2022-08-09T19:05:49.140Z,1.90
2022-08-09T19:08:13.954Z,2.30
2022-08-09T19:10:48.175Z,1.90
2022-08-09T19:13:19.130Z,2.07
2022-08-09T19:15:52.547Z,1.97
2022-08-09T19:18:33.351Z,1.90
2022-08-09T19:21:03.356Z,2.17
2022-08-09T19:24:37.779Z,1.90
2022-08-09T19:26:29.203Z,2.10
2022-08-09T19:29:01.539Z,2.20
2022-08-09T19:31:30.694Z,2.03
2022-08-09T19:34:21.955Z,2.10
2022-08-09T19:36:59.012Z,2.07
2022-08-09T19:39:43.028Z,1.83
2022-08-09T19:42:15.218Z,2.07
2022-08-09T19:44:49.275Z,1.83
2022-08-09T19:47:22.705Z,2.37
2022-08-09T19:50:08.330Z,2.07
2022-08-09T19:52:49.318Z,2.50
2022-08-09T19:55:19.379Z,2.33
2022-08-09T19:57:46.431Z,2.03
2022-08-09T20:00:15.473Z,2.10
2022-08-09T20:04:16.923Z,2.10
2022-08-09T20:05:31.038Z,2.10
2022-08-09T20:08:12.824Z,2.17
2022-08-09T20:10:43.257Z,2.50
2022-08-09T20:13:10.917Z,1.87
2022-08-09T20:16:37.772Z,2.30
2022-08-09T20:18:27.962Z,2.30
2022-08-09T20:20:56.190Z,2.47
2022-08-09T20:23:24.161Z,2.10
2022-08-09T20:26:06.911Z,2.20
2022-08-09T20:28:38.704Z,2.37
2022-08-09T20:31:15.497Z,2.20
2022-08-09T20:33:44.083Z,2.00
2022-08-09T20:36:12.374Z,2.37
2022-08-09T20:41:35.098Z,2.30
2022-08-09T20:44:05.158Z,1.90
2022-08-09T20:46:43.982Z,2.40
2022-08-09T20:49:16.032Z,2.17
2022-08-09T20:51:44.836Z,2.00
2022-08-09T20:54:18.046Z,3.00
2022-08-09T20:56:54.139Z,2.50
2022-08-09T20:59:50.394Z,2.20
2022-08-09T21:02:10.269Z,2.00
2022-08-09T21:05:54.686Z,2.10
2022-08-09T21:07:30.020Z,2.20
2022-08-09T21:10:05.806Z,2.20
2022-08-09T21:12:36.412Z,2.43
2022-08-09T21:15:05.350Z,2.17
2022-08-09T21:18:11.158Z,1.90
2022-08-09T21:20:26.078Z,2.47
2022-08-09T21:22:54.585Z,2.40
2022-08-09T21:25:44.411Z,2.40
2022-08-09T21:28:33.397Z,2.40
2022-08-09T21:31:17.369Z,2.30
2022-08-09T21:33:51.033Z,2.20
2022-08-09T21:36:25.978Z,2.20
2022-08-09T21:38:57.299Z,2.20
2022-08-09T21:42:04.435Z,2.27
2022-08-09T21:44:33.402Z,2.53
2022-08-09T21:47:02.763Z,2.20
2022-08-09T21:49:40.279Z,2.30
2022-08-09T21:52:16.743Z,2.20
2022-08-09T21:55:03.099Z,2.20
2022-08-09T21:57:38.688Z,2.17
2022-08-09T22:00:33.775Z,2.53
2022-08-09T22:03:04.366Z,2.20
2022-08-09T22:05:36.866Z,2.13
2022-08-09T22:08:12.781Z,2.27
2022-08-09T22:11:49.055Z,2.20
2022-08-09T22:13:31.606Z,2.00
2022-08-09T22:16:07.817Z,2.27
2022-08-09T22:18:35.552Z,2.20
2022-08-09T22:21:09.979Z,2.23
2022-08-09T22:24:01.205Z,2.20
2022-08-09T22:26:35.528Z,2.10
2022-08-09T22:29:08.809Z,1.87
2022-08-09T22:31:50.313Z,2.27
2022-08-09T22:34:25.694Z,2.33
2022-08-09T22:36:54.886Z,2.17
2022-08-09T22:39:56.135Z,2.13
2022-08-09T22:42:22.529Z,2.27
2022-08-09T22:48:05.967Z,2.37
2022-08-09T22:48:13.371Z,2.00
2022-08-09T22:50:30.195Z,2.10
2022-08-09T22:52:58.278Z,2.20
2022-08-09T22:55:39.237Z,2.07
2022-08-09T22:58:20.200Z,2.50
2022-08-09T23:00:57.809Z,2.40
2022-08-09T23:04:02.694Z,1.97
2022-08-09T23:06:14.061Z,2.10
2022-08-09T23:08:59.767Z,2.10
2022-08-09T23:11:26.337Z,2.50
2022-08-09T23:13:54.123Z,2.40
2022-08-09T23:16:23.021Z,2.60
2022-08-09T23:18:49.958Z,2.47
2022-08-09T23:21:23.917Z,2.30
2022-08-09T23:24:01.537Z,2.53
2022-08-09T23:26:33.892Z,2.20
2022-08-09T23:29:00.328Z,2.30
2022-08-09T23:31:26.789Z,2.50
2022-08-09T23:33:53.291Z,2.30
2022-08-09T23:36:26.875Z,2.60
2022-08-09T23:38:53.407Z,2.70
2022-08-09T23:41:27.659Z,2.50
2022-08-09T23:43:57.368Z,2.47
2022-08-09T23:46:23.854Z,2.33
2022-08-09T23:48:50.501Z,2.43
2022-08-09T23:51:18.536Z,2.50
2022-08-09T23:53:45.528Z,2.30
2022-08-09T23:56:18.199Z,2.43
2022-08-09T23:59:04.626Z,2.60
